Brillion, Wisconsin
Current Conditions -  °F | °C
As of 10:56 AM on Sunday 23 Nov 2014 (Local Time) from KMTW Reporting Station
Haze Haze  
Wind Chill: 39°   Ceiling: 800
Heat Index: 45°   Visibility: 6mi
Dew Point: 44°   Wind: 13mph
Humidity: 97%   Direction: 180°S
Pressure: 29.63"   Gusts: NA
Location:  44.18°N, 88.06°W
Report Text: KMTW 231656Z AUTO 18011KT 6SM BR OVC008 07/07 A2963 RMK AO2 SLP061 T00720067
Loading
Personal Weather Stations






























Interactive Weather Map New forecast layout! Learn more

10-Day Weather Forecast

Advertisements
Track Severe Weather on mobile